createdAt,value
2022-08-29T00:00:01.687Z,12.94
2022-08-29T00:05:02.019Z,12.87
2022-08-29T00:10:01.207Z,12.72
2022-08-29T00:15:01.551Z,12.64
2022-08-29T00:20:02.075Z,12.56
2022-08-29T00:25:01.891Z,12.55
2022-08-29T00:30:01.916Z,12.51
2022-08-29T00:35:01.366Z,12.51
2022-08-29T00:40:01.542Z,12.44
2022-08-29T00:45:02.212Z,12.35
2022-08-29T00:50:02.034Z,12.34
2022-08-29T00:55:01.497Z,12.3
2022-08-29T01:00:01.874Z,12.25
2022-08-29T01:05:01.799Z,12.21
2022-08-29T01:10:02.045Z,12.1
2022-08-29T01:15:01.567Z,11.96
2022-08-29T01:20:01.774Z,11.92
2022-08-29T01:25:01.825Z,11.79
2022-08-29T01:30:01.498Z,11.75
2022-08-29T01:35:02.886Z,11.7
2022-08-29T01:40:01.473Z,11.68
2022-08-29T01:45:02.932Z,11.68
2022-08-29T01:50:02.030Z,11.74
2022-08-29T01:55:01.406Z,11.68
2022-08-29T02:00:01.873Z,11.59
2022-08-29T02:05:01.584Z,11.57
2022-08-29T02:10:01.475Z,11.58
2022-08-29T02:15:01.591Z,11.52
2022-08-29T02:20:01.711Z,11.47
2022-08-29T02:25:01.706Z,11.51
2022-08-29T02:30:02.076Z,11.54
2022-08-29T02:35:01.271Z,11.58
2022-08-29T02:40:01.579Z,11.53
2022-08-29T02:45:01.443Z,11.48
2022-08-29T02:50:01.450Z,11.4
2022-08-29T02:55:02.066Z,11.36
2022-08-29T03:00:01.193Z,11.38
2022-08-29T03:05:02.168Z,11.33
2022-08-29T03:10:01.938Z,11.27
2022-08-29T03:15:01.187Z,11.15
2022-08-29T03:20:01.445Z,11.1
2022-08-29T03:25:02.046Z,11.03
2022-08-29T03:30:01.670Z,10.92
2022-08-29T03:35:01.160Z,10.88
2022-08-29T03:40:01.654Z,10.84
2022-08-29T03:45:01.170Z,10.84
2022-08-29T03:50:01.635Z,10.8
2022-08-29T03:55:01.387Z,10.75
2022-08-29T04:00:02.026Z,10.73
2022-08-29T04:05:05.947Z,10.84
2022-08-29T04:10:01.420Z,10.89
2022-08-29T04:15:01.225Z,10.75
2022-08-29T04:20:01.691Z,10.75
2022-08-29T04:25:01.374Z,10.68
2022-08-29T04:30:01.580Z,10.68
2022-08-29T04:35:02.009Z,10.73
2022-08-29T04:40:01.986Z,10.71
2022-08-29T04:45:01.361Z,10.79
2022-08-29T04:50:02.107Z,10.73
2022-08-29T04:55:01.514Z,10.74
2022-08-29T05:00:02.047Z,10.71
2022-08-29T05:05:01.592Z,10.66
2022-08-29T05:10:02.065Z,10.63
2022-08-29T05:15:01.946Z,10.52
2022-08-29T05:20:02.055Z,10.53
2022-08-29T05:25:01.651Z,10.53
2022-08-29T05:30:01.815Z,10.58
2022-08-29T05:35:01.694Z,10.66
2022-08-29T05:40:02.170Z,10.79
2022-08-29T05:45:01.858Z,10.95
2022-08-29T05:50:01.686Z,11.1
2022-08-29T05:55:01.389Z,11.27
2022-08-29T06:00:01.664Z,11.48
2022-08-29T06:05:01.375Z,11.81
2022-08-29T06:10:03.786Z,12.01
2022-08-29T06:15:01.712Z,12.2
2022-08-29T06:20:01.420Z,12.34
2022-08-29T06:25:08.722Z,12.65
2022-08-29T06:30:02.178Z,12.96
2022-08-29T06:35:01.614Z,13.55
2022-08-29T06:40:01.967Z,13.78
2022-08-29T06:45:01.208Z,13.91
2022-08-29T06:50:01.474Z,13.98
2022-08-29T06:55:01.449Z,14.06
2022-08-29T07:00:01.644Z,14.19
2022-08-29T07:05:01.607Z,14.22
2022-08-29T07:10:01.270Z,14.18
2022-08-29T07:15:01.271Z,14.22
2022-08-29T07:20:01.683Z,14.37
2022-08-29T07:25:01.677Z,15.07
2022-08-29T07:30:01.317Z,15.51
2022-08-29T07:35:01.605Z,15.93
2022-08-29T07:40:01.631Z,16.3
2022-08-29T07:45:01.963Z,16.7
2022-08-29T07:50:01.728Z,17.22
2022-08-29T07:55:01.754Z,17.68
2022-08-29T08:00:01.717Z,17.77
2022-08-29T08:05:01.162Z,17.7
2022-08-29T08:10:01.301Z,17.73
2022-08-29T08:15:01.827Z,18.13
2022-08-29T08:20:01.208Z,18.4
2022-08-29T08:25:01.703Z,18.12
2022-08-29T08:30:01.532Z,18.07
2022-08-29T08:35:01.904Z,18.4
2022-08-29T08:40:01.681Z,18.81
2022-08-29T08:45:01.278Z,19.39
2022-08-29T08:50:01.197Z,19.18
2022-08-29T08:55:01.381Z,19.41
2022-08-29T09:00:01.400Z,19.23
2022-08-29T09:05:02.100Z,19.47
2022-08-29T09:10:01.979Z,19.43
2022-08-29T09:15:01.441Z,19.62
2022-08-29T09:20:01.580Z,19.69
2022-08-29T09:25:01.550Z,19.86
2022-08-29T09:30:01.207Z,20.17
2022-08-29T09:35:09.483Z,20.1
2022-08-29T09:40:02.089Z,19.6
2022-08-29T09:45:01.723Z,20.29
2022-08-29T09:50:01.315Z,20.45
2022-08-29T09:55:01.618Z,20.76
2022-08-29T10:00:01.397Z,21.01
2022-08-29T10:05:01.596Z,20.44
2022-08-29T10:10:01.708Z,20.31
2022-08-29T10:15:01.207Z,20.47
2022-08-29T10:20:01.448Z,20.57
2022-08-29T10:25:01.349Z,20.93
2022-08-29T10:30:01.915Z,21.2
2022-08-29T10:35:01.343Z,21.23
2022-08-29T10:40:01.399Z,21.3
2022-08-29T10:45:01.615Z,21.08
2022-08-29T10:50:01.640Z,21.02
2022-08-29T10:55:01.941Z,20.87
2022-08-29T11:00:01.839Z,20.99
2022-08-29T11:05:01.263Z,21.33
2022-08-29T11:10:01.808Z,21.44
2022-08-29T11:15:01.569Z,20.73
2022-08-29T11:20:01.247Z,21.08
2022-08-29T11:25:01.603Z,21.39
2022-08-29T11:30:02.172Z,21.63
2022-08-29T11:35:01.553Z,21.84
2022-08-29T11:40:01.817Z,21.53
2022-08-29T11:45:01.536Z,21.96
2022-08-29T11:50:02.018Z,22.31
2022-08-29T11:55:01.886Z,22.58
2022-08-29T12:00:01.304Z,21.74
2022-08-29T12:05:01.391Z,21.6
2022-08-29T12:10:02.057Z,21.94
2022-08-29T12:15:01.708Z,22.29
2022-08-29T12:20:01.495Z,22.01
2022-08-29T12:25:01.401Z,21.87
2022-08-29T12:30:01.699Z,21.94
2022-08-29T12:35:01.715Z,22.21
2022-08-29T12:40:02.327Z,22.37
2022-08-29T12:45:01.452Z,22.6
2022-08-29T12:50:02.004Z,22.61
2022-08-29T12:55:02.032Z,22.49
2022-08-29T13:00:01.857Z,22.52
2022-08-29T13:05:01.400Z,22.25
2022-08-29T13:10:01.470Z,22.36
2022-08-29T13:15:02.228Z,22.38
2022-08-29T13:20:02.220Z,22.41
2022-08-29T13:25:01.245Z,22.6
2022-08-29T13:30:02.153Z,22.66
2022-08-29T13:35:01.503Z,22.77
2022-08-29T13:40:01.833Z,22.82
2022-08-29T13:45:05.281Z,22.68
2022-08-29T13:50:02.060Z,22.53
2022-08-29T13:55:01.898Z,22.64
2022-08-29T14:00:01.924Z,22.83
2022-08-29T14:05:01.489Z,22.76
2022-08-29T14:10:01.158Z,22.71
2022-08-29T14:15:05.388Z,22.78
2022-08-29T14:20:02.150Z,22.98
2022-08-29T14:25:01.394Z,23.1
2022-08-29T14:30:01.701Z,23.07
2022-08-29T14:35:02.055Z,23
2022-08-29T14:40:01.390Z,23.15
2022-08-29T14:45:01.365Z,23.21
2022-08-29T14:50:01.236Z,23.15
2022-08-29T14:55:01.388Z,23.11
2022-08-29T15:00:01.429Z,23.21
2022-08-29T15:05:01.417Z,23.43
2022-08-29T15:10:02.066Z,23.56
2022-08-29T15:15:01.551Z,23.53
2022-08-29T15:20:34.993Z,23.59
2022-08-29T15:25:01.675Z,23.54
2022-08-29T15:30:01.887Z,23.41
2022-08-29T15:35:01.392Z,23.18
2022-08-29T15:40:01.212Z,23.14
2022-08-29T15:45:02.601Z,23.13
2022-08-29T15:50:02.087Z,23.15
2022-08-29T15:55:01.179Z,23.27
2022-08-29T16:00:01.396Z,23.35
2022-08-29T16:05:02.066Z,23.25
2022-08-29T16:10:04.715Z,23.31
2022-08-29T16:15:05.396Z,23.41
2022-08-29T16:20:02.294Z,23.42
2022-08-29T16:25:02.341Z,23.45
2022-08-29T16:30:02.370Z,23.47
2022-08-29T16:35:06.977Z,23.42
2022-08-29T16:40:06.979Z,23.34
2022-08-29T16:45:01.945Z,23.24
2022-08-29T16:50:01.545Z,23.12
2022-08-29T16:55:02.020Z,23.06
2022-08-29T17:00:02.104Z,22.86
2022-08-29T17:05:01.897Z,22.77
2022-08-29T17:10:01.444Z,22.49
2022-08-29T17:15:01.867Z,22.39
2022-08-29T17:20:02.171Z,22.34
2022-08-29T17:25:01.950Z,22.55
2022-08-29T17:30:01.991Z,22.57
2022-08-29T17:35:02.102Z,22.46
2022-08-29T17:40:01.373Z,22.37
2022-08-29T17:45:01.343Z,22.19
2022-08-29T17:50:01.655Z,21.93
2022-08-29T17:55:06.513Z,21.75
2022-08-29T18:00:01.636Z,21.5
2022-08-29T18:05:01.206Z,21.36
2022-08-29T18:10:01.870Z,21.21
2022-08-29T18:15:01.469Z,20.98
2022-08-29T18:20:01.935Z,20.66
2022-08-29T18:25:01.547Z,20.37
2022-08-29T18:30:01.891Z,20.1
2022-08-29T18:35:01.626Z,19.95
2022-08-29T18:40:01.632Z,19.72
2022-08-29T18:45:01.401Z,19.52
2022-08-29T18:50:01.655Z,19.4
2022-08-29T18:55:01.818Z,19.14
2022-08-29T19:00:01.573Z,18.94
2022-08-29T19:05:01.438Z,18.83
2022-08-29T19:10:01.917Z,18.77
2022-08-29T19:15:01.959Z,18.69
2022-08-29T19:20:02.137Z,18.55
2022-08-29T19:25:01.360Z,18.49
2022-08-29T19:30:05.233Z,18.41
2022-08-29T19:35:01.188Z,18.3
2022-08-29T19:40:01.485Z,18.25
2022-08-29T19:45:01.640Z,18.28
2022-08-29T19:50:01.599Z,18.26
2022-08-29T19:55:01.513Z,18.25
2022-08-29T20:00:01.970Z,18.25
2022-08-29T20:05:01.900Z,18.2
2022-08-29T20:10:01.970Z,18.24
2022-08-29T20:15:01.842Z,18.26
2022-08-29T20:20:02.152Z,18.33
2022-08-29T20:25:01.386Z,18.28
2022-08-29T20:30:01.827Z,18.23
2022-08-29T20:35:01.873Z,18.24
2022-08-29T20:40:01.800Z,18.17
2022-08-29T20:45:01.884Z,18.13
2022-08-29T20:50:01.853Z,18.11
2022-08-29T20:55:02.192Z,18.06
2022-08-29T21:00:01.921Z,18.07
2022-08-29T21:05:01.412Z,18.08
2022-08-29T21:10:02.223Z,18.15
2022-08-29T21:15:01.900Z,18.14
2022-08-29T21:20:01.371Z,18.11
2022-08-29T21:25:02.094Z,18.1
2022-08-29T21:30:01.553Z,18.04
2022-08-29T21:35:01.298Z,17.96
2022-08-29T21:40:01.761Z,18.09
2022-08-29T21:45:01.306Z,18.21
2022-08-29T21:50:01.491Z,18.22
2022-08-29T21:55:01.811Z,18.17
2022-08-29T22:00:01.435Z,18.1
2022-08-29T22:05:01.904Z,18.03
2022-08-29T22:10:01.173Z,17.92
2022-08-29T22:15:02.084Z,17.75
2022-08-29T22:20:01.205Z,17.73
2022-08-29T22:25:01.267Z,17.77
2022-08-29T22:30:01.798Z,17.7
2022-08-29T22:35:01.486Z,17.7
2022-08-29T22:40:02.115Z,17.68
2022-08-29T22:45:04.232Z,17.53
2022-08-29T22:50:01.363Z,17.55
2022-08-29T22:55:01.920Z,17.48
2022-08-29T23:00:01.294Z,17.46
2022-08-29T23:05:04.417Z,17.34
2022-08-29T23:10:01.414Z,17.34
2022-08-29T23:15:01.401Z,17.3
2022-08-29T23:20:01.186Z,17.26
2022-08-29T23:25:01.744Z,17.34
2022-08-29T23:30:01.372Z,17.26
2022-08-29T23:35:02.010Z,17.08
2022-08-29T23:40:01.670Z,16.91
2022-08-29T23:45:01.571Z,16.85
2022-08-29T23:50:01.358Z,16.67
2022-08-29T23:55:01.300Z,16.37
